createdAt,value
2018-03-08T00:01:38.401Z,143.80
2018-03-08T00:04:06.785Z,157.62
2018-03-08T00:06:35.132Z,156.95
2018-03-08T00:09:03.441Z,148.85
2018-03-08T00:11:31.821Z,164.62
2018-03-08T00:14:00.152Z,160.23
2018-03-08T00:16:28.515Z,164.23
2018-03-08T00:18:57.014Z,171.02
2018-03-08T00:21:25.375Z,164.93
2018-03-08T00:23:53.712Z,170.95
2018-03-08T00:26:22.835Z,179.70
2018-03-08T00:28:51.168Z,184.75
2018-03-08T00:31:19.510Z,174.02
2018-03-08T00:33:47.880Z,179.87
2018-03-08T00:36:16.339Z,173.00
2018-03-08T00:38:44.660Z,172.13
2018-03-08T00:41:13.533Z,168.85
2018-03-08T00:43:41.848Z,173.15
2018-03-08T00:46:10.197Z,175.80
2018-03-08T00:48:38.529Z,172.00
2018-03-08T00:51:07.633Z,173.98
2018-03-08T00:53:36.722Z,168.13
2018-03-08T00:56:05.853Z,176.55
2018-03-08T00:58:34.178Z,173.52
2018-03-08T01:01:03.353Z,180.63
2018-03-08T01:03:31.788Z,173.10
2018-03-08T01:06:00.931Z,178.38
2018-03-08T01:08:29.278Z,171.43
2018-03-08T01:10:57.621Z,176.18
2018-03-08T01:13:25.939Z,170.60
2018-03-08T01:15:54.252Z,164.77
2018-03-08T01:18:22.637Z,156.05
2018-03-08T01:20:50.973Z,177.93
2018-03-08T01:23:19.318Z,161.43
2018-03-08T01:25:48.629Z,162.37
2018-03-08T01:28:17.736Z,176.87
2018-03-08T01:30:46.056Z,172.80
2018-03-08T01:33:14.428Z,178.07
2018-03-08T01:35:42.777Z,172.13
2018-03-08T01:38:11.220Z,182.02
2018-03-08T01:40:40.365Z,164.98
2018-03-08T01:43:08.694Z,174.00
2018-03-08T01:45:37.032Z,178.05
2018-03-08T01:48:05.573Z,184.80
2018-03-08T01:50:34.652Z,177.02
2018-03-08T01:53:03.769Z,178.85
2018-03-08T01:55:32.108Z,177.87
2018-03-08T01:58:00.637Z,184.60
2018-03-08T02:00:29.706Z,189.80
2018-03-08T02:02:58.266Z,191.32
2018-03-08T02:05:26.642Z,203.00
2018-03-08T02:07:55.044Z,202.32
2018-03-08T02:10:23.755Z,194.05
2018-03-08T02:12:52.284Z,186.95
2018-03-08T02:15:20.924Z,197.73
2018-03-08T02:17:50.028Z,202.50
2018-03-08T02:20:18.395Z,173.05
2018-03-08T02:22:47.497Z,182.95
2018-03-08T02:25:16.653Z,178.75
2018-03-08T02:27:44.977Z,191.27
2018-03-08T02:30:13.446Z,169.57
2018-03-08T02:32:43.154Z,183.77
2018-03-08T02:35:11.565Z,182.35
2018-03-08T02:37:40.243Z,183.60
2018-03-08T02:40:08.827Z,189.15
2018-03-08T02:42:37.509Z,185.15
2018-03-08T02:45:05.798Z,202.48
2018-03-08T02:47:34.142Z,191.48
2018-03-08T02:50:02.468Z,184.32
2018-03-08T02:52:31.022Z,183.27
2018-03-08T02:54:59.692Z,193.75
2018-03-08T02:57:28.342Z,199.23
2018-03-08T02:59:56.654Z,172.62
2018-03-08T03:02:25.025Z,197.60
2018-03-08T03:04:53.457Z,182.43
2018-03-08T03:07:21.786Z,184.30
2018-03-08T03:09:50.987Z,198.27
2018-03-08T03:12:19.282Z,194.98
2018-03-08T03:14:47.593Z,198.00
2018-03-08T03:17:16.522Z,188.75
2018-03-08T03:19:44.984Z,184.73
2018-03-08T03:22:13.419Z,190.55
2018-03-08T03:24:41.800Z,194.80
2018-03-08T03:27:10.384Z,187.45
2018-03-08T03:29:38.717Z,197.30
2018-03-08T03:32:07.218Z,225.98
2018-03-08T03:34:35.590Z,209.95
2018-03-08T03:37:05.563Z,191.77
2018-03-08T03:39:34.104Z,209.87
2018-03-08T03:42:02.689Z,198.55
2018-03-08T03:44:31.142Z,227.43
2018-03-08T03:46:59.730Z,205.98
2018-03-08T03:49:28.134Z,208.20
2018-03-08T03:51:56.614Z,199.73
2018-03-08T03:54:24.976Z,200.80
2018-03-08T03:56:53.300Z,209.80
2018-03-08T03:59:21.853Z,203.75
2018-03-08T04:01:50.229Z,200.77
2018-03-08T04:04:18.854Z,214.88
2018-03-08T04:06:47.282Z,215.50
2018-03-08T04:09:15.644Z,215.07
2018-03-08T04:11:44.297Z,209.25
2018-03-08T04:14:12.604Z,210.15
2018-03-08T04:16:41.011Z,216.23
2018-03-08T04:19:09.782Z,215.65
2018-03-08T04:21:38.111Z,206.77
2018-03-08T04:24:07.548Z,213.80
2018-03-08T04:26:35.873Z,182.52
2018-03-08T04:29:04.220Z,186.82
2018-03-08T04:31:32.752Z,185.32
2018-03-08T04:34:01.145Z,196.20
2018-03-08T04:36:29.511Z,185.85
2018-03-08T04:38:57.888Z,186.12
2018-03-08T04:41:26.954Z,195.75
2018-03-08T04:43:55.294Z,191.60
2018-03-08T04:46:23.700Z,184.80
2018-03-08T04:48:52.099Z,182.52
2018-03-08T04:51:20.708Z,190.55
2018-03-08T04:53:49.287Z,193.57
2018-03-08T04:56:18.643Z,191.02
2018-03-08T04:58:47.005Z,186.52
2018-03-08T05:01:15.352Z,177.98
2018-03-08T05:03:44.444Z,183.85
2018-03-08T05:06:12.770Z,177.38
2018-03-08T05:08:41.614Z,175.12
2018-03-08T05:11:09.924Z,161.12
2018-03-08T05:13:38.256Z,170.82
2018-03-08T05:16:06.602Z,178.00
2018-03-08T05:18:35.050Z,168.82
2018-03-08T05:21:03.393Z,182.15
2018-03-08T05:23:31.768Z,166.02
2018-03-08T05:26:00.093Z,164.35
2018-03-08T05:28:28.404Z,167.07
2018-03-08T05:30:56.963Z,166.05
2018-03-08T05:33:25.286Z,168.07
2018-03-08T05:35:53.610Z,151.57
2018-03-08T05:38:21.962Z,146.45
2018-03-08T05:40:50.316Z,142.37
2018-03-08T05:43:18.668Z,145.07
2018-03-08T05:45:47.019Z,148.45
2018-03-08T05:48:15.340Z,152.65
2018-03-08T05:50:43.657Z,148.18
2018-03-08T05:53:13.096Z,144.48
2018-03-08T05:55:41.961Z,152.02
2018-03-08T05:58:10.460Z,150.05
2018-03-08T06:00:38.815Z,156.77
2018-03-08T06:03:07.980Z,161.02
2018-03-08T06:05:36.345Z,144.68
2018-03-08T06:08:04.725Z,148.60
2018-03-08T06:10:33.102Z,149.87
2018-03-08T06:13:01.442Z,164.37
2018-03-08T06:15:29.843Z,160.70
2018-03-08T06:17:58.174Z,136.23
2018-03-08T06:20:27.313Z,152.25
2018-03-08T06:22:55.677Z,147.75
2018-03-08T06:25:23.992Z,140.07
2018-03-08T06:27:52.464Z,145.40
2018-03-08T06:30:20.810Z,137.55
2018-03-08T06:32:49.136Z,135.57
2018-03-08T06:35:17.642Z,142.48
2018-03-08T06:37:46.327Z,138.80
2018-03-08T06:40:14.677Z,146.10
2018-03-08T06:42:43.023Z,141.55
2018-03-08T06:45:11.501Z,130.23
2018-03-08T06:47:39.842Z,144.52
2018-03-08T06:50:08.189Z,121.62
2018-03-08T06:52:36.564Z,119.35
2018-03-08T06:55:04.914Z,117.80
2018-03-08T06:57:33.657Z,104.97
2018-03-08T07:00:02.061Z,112.45
2018-03-08T07:02:30.649Z,102.00
2018-03-08T07:04:59.763Z,95.55
2018-03-08T07:07:28.110Z,95.28
2018-03-08T07:09:56.425Z,101.18
2018-03-08T07:12:24.805Z,92.03
2018-03-08T07:14:53.160Z,83.50
2018-03-08T07:17:21.710Z,92.72
2018-03-08T07:19:50.054Z,94.28
2018-03-08T07:22:18.599Z,77.10
2018-03-08T07:24:46.980Z,76.07
2018-03-08T07:27:15.364Z,71.50
2018-03-08T07:29:44.520Z,67.85
2018-03-08T07:32:13.067Z,64.85
2018-03-08T07:34:41.538Z,59.60
2018-03-08T07:37:10.025Z,52.30
2018-03-08T07:39:38.377Z,48.85
2018-03-08T07:42:06.887Z,50.47
2018-03-08T07:44:35.300Z,35.70
2018-03-08T07:47:03.742Z,37.35
2018-03-08T07:49:32.113Z,33.70
2018-03-08T07:52:00.584Z,30.83
2018-03-08T07:54:29.326Z,31.85
2018-03-08T07:56:57.651Z,35.58
2018-03-08T07:59:26.919Z,30.00
2018-03-08T08:01:55.244Z,29.92
2018-03-08T08:04:42.170Z,31.10
2018-03-08T08:07:28.812Z,27.85
2018-03-08T08:09:57.295Z,24.95
2018-03-08T08:12:25.771Z,22.30
2018-03-08T08:14:54.425Z,26.15
2018-03-08T08:17:22.790Z,20.58
2018-03-08T08:19:51.928Z,26.08
2018-03-08T08:22:20.415Z,23.00
2018-03-08T08:24:48.996Z,24.65
2018-03-08T08:27:17.317Z,25.52
2018-03-08T08:29:46.572Z,22.17
2018-03-08T08:32:15.058Z,22.83
2018-03-08T08:34:43.398Z,21.95
2018-03-08T08:37:12.047Z,23.35
2018-03-08T08:39:40.683Z,26.23
2018-03-08T08:42:09.029Z,20.42
2018-03-08T08:44:38.136Z,23.80
2018-03-08T08:47:07.368Z,23.27
2018-03-08T08:49:35.681Z,26.77
2018-03-08T08:52:04.045Z,24.70
2018-03-08T08:54:32.444Z,25.08
2018-03-08T08:57:00.746Z,23.60
2018-03-08T08:59:30.013Z,22.23
2018-03-08T09:01:58.423Z,23.30
2018-03-08T09:04:27.539Z,23.25
2018-03-08T09:06:55.868Z,30.60
2018-03-08T09:09:24.739Z,29.67
2018-03-08T09:11:53.104Z,27.90
2018-03-08T09:14:21.424Z,31.17
2018-03-08T09:16:49.782Z,32.42
2018-03-08T09:19:18.863Z,25.00
2018-03-08T09:21:47.192Z,31.45
2018-03-08T09:24:15.594Z,42.13
2018-03-08T09:26:43.930Z,33.10
2018-03-08T09:29:12.284Z,31.73
2018-03-08T09:31:40.733Z,32.63
2018-03-08T09:34:09.276Z,31.85
2018-03-08T09:36:37.591Z,32.88
2018-03-08T09:39:05.935Z,38.80
2018-03-08T09:41:34.287Z,44.00
2018-03-08T09:44:02.694Z,46.67
2018-03-08T09:46:31.064Z,55.90
2018-03-08T09:48:59.437Z,44.63
2018-03-08T09:51:27.781Z,53.65
2018-03-08T09:53:56.544Z,57.60
2018-03-08T09:56:24.895Z,50.55
2018-03-08T09:58:53.269Z,61.13
2018-03-08T10:01:21.647Z,60.25
2018-03-08T10:03:49.967Z,60.55
2018-03-08T10:06:18.331Z,52.45
2018-03-08T10:08:46.764Z,52.60
2018-03-08T10:11:15.120Z,51.67
2018-03-08T10:13:43.537Z,49.00
2018-03-08T10:16:12.226Z,50.67
2018-03-08T10:18:40.557Z,51.47
2018-03-08T10:21:08.904Z,64.32
2018-03-08T10:23:37.253Z,55.40
2018-03-08T10:26:05.651Z,60.50
2018-03-08T10:28:34.014Z,59.03
2018-03-08T10:31:02.348Z,49.70
2018-03-08T10:33:30.763Z,52.33
2018-03-08T10:35:59.120Z,53.97
2018-03-08T10:38:27.740Z,54.13
2018-03-08T10:40:56.121Z,53.93
2018-03-08T10:43:24.519Z,59.20
2018-03-08T10:45:52.998Z,56.03
2018-03-08T10:48:21.320Z,53.93
2018-03-08T10:50:49.636Z,56.33
2018-03-08T10:53:18.008Z,56.47
2018-03-08T10:55:46.344Z,52.57
2018-03-08T10:58:14.731Z,59.40
2018-03-08T11:00:46.985Z,57.90
2018-03-08T11:03:16.077Z,57.33
2018-03-08T11:05:47.443Z,58.50
2018-03-08T11:08:16.809Z,66.80
2018-03-08T11:10:45.202Z,63.53
2018-03-08T11:13:13.552Z,62.73
2018-03-08T11:15:41.908Z,57.93
2018-03-08T11:18:10.426Z,53.60
2018-03-08T11:20:38.941Z,46.90
2018-03-08T11:23:07.647Z,52.50
2018-03-08T11:25:35.974Z,48.87
2018-03-08T11:28:04.311Z,55.93
2018-03-08T11:30:32.678Z,52.93
2018-03-08T11:33:01.192Z,53.40
2018-03-08T11:35:29.524Z,52.57
2018-03-08T11:37:58.946Z,45.93
2018-03-08T11:40:27.331Z,47.43
2018-03-08T11:42:55.914Z,47.03
2018-03-08T11:45:24.366Z,47.00
2018-03-08T11:47:52.712Z,37.73
2018-03-08T11:50:21.853Z,48.17
2018-03-08T11:52:49.422Z,47.97
2018-03-08T11:55:17.754Z,44.30
2018-03-08T11:57:46.126Z,34.33
2018-03-08T12:00:14.580Z,38.33
2018-03-08T12:02:42.891Z,30.83
2018-03-08T12:05:11.288Z,34.10
2018-03-08T12:07:40.904Z,30.57
2018-03-08T12:10:09.994Z,30.20
2018-03-08T12:12:38.341Z,30.50
2018-03-08T12:15:06.690Z,42.10
2018-03-08T12:17:35.084Z,28.67
2018-03-08T12:20:03.397Z,33.83
2018-03-08T12:22:31.753Z,26.57
2018-03-08T12:25:00.051Z,31.20
2018-03-08T12:27:28.433Z,30.83
2018-03-08T12:29:56.997Z,25.10
2018-03-08T12:32:25.410Z,21.97
2018-03-08T12:34:54.545Z,24.43
2018-03-08T12:37:23.165Z,16.17
2018-03-08T12:39:51.502Z,18.97
2018-03-08T12:42:19.844Z,27.30
2018-03-08T12:44:48.230Z,15.53
2018-03-08T12:47:16.561Z,30.53
2018-03-08T12:49:44.899Z,16.90
2018-03-08T12:52:13.294Z,32.37
2018-03-08T12:54:41.649Z,21.67
2018-03-08T12:57:10.065Z,19.87
2018-03-08T12:59:38.442Z,18.57
2018-03-08T13:02:06.824Z,18.13
2018-03-08T13:04:35.172Z,23.67
2018-03-08T13:07:04.281Z,25.93
2018-03-08T13:09:32.597Z,17.10
2018-03-08T13:12:00.913Z,19.30
2018-03-08T13:14:29.521Z,18.80
2018-03-08T13:16:58.216Z,14.83
2018-03-08T13:19:26.575Z,23.97
2018-03-08T13:21:55.716Z,10.80
2018-03-08T13:24:24.099Z,20.60
2018-03-08T13:26:53.460Z,13.53
2018-03-08T13:29:22.569Z,12.27
2018-03-08T13:31:51.671Z,16.43
2018-03-08T13:34:19.998Z,12.43
2018-03-08T13:36:48.470Z,18.73
2018-03-08T13:39:16.837Z,15.43
2018-03-08T13:41:45.169Z,13.93
2018-03-08T13:44:14.365Z,17.80
2018-03-08T13:46:42.717Z,9.93
2018-03-08T13:49:29.595Z,15.07
2018-03-08T13:51:57.944Z,12.83
2018-03-08T13:54:27.026Z,18.80
2018-03-08T13:56:56.357Z,11.80
2018-03-08T13:59:24.739Z,9.47
2018-03-08T14:01:53.081Z,15.07
2018-03-08T14:04:21.430Z,11.93
2018-03-08T14:06:50.514Z,10.73
2018-03-08T14:09:18.827Z,13.33
2018-03-08T14:11:47.175Z,8.23
2018-03-08T14:14:15.480Z,17.00
2018-03-08T14:16:43.783Z,14.23
2018-03-08T14:19:13.100Z,9.80
2018-03-08T14:21:41.466Z,12.20
2018-03-08T14:24:09.837Z,13.10
2018-03-08T14:26:38.957Z,9.73
2018-03-08T14:29:07.318Z,17.70
2018-03-08T14:31:36.469Z,15.87
2018-03-08T14:34:04.840Z,10.60
2018-03-08T14:36:33.179Z,11.37
2018-03-08T14:39:01.514Z,14.63
2018-03-08T14:41:29.930Z,18.13
2018-03-08T14:43:58.269Z,6.17
2018-03-08T14:46:26.624Z,8.97
2018-03-08T14:48:54.993Z,6.90
2018-03-08T14:51:23.313Z,6.07
2018-03-08T14:53:51.683Z,9.43
2018-03-08T14:56:20.038Z,13.33
2018-03-08T14:58:48.419Z,5.73
2018-03-08T15:01:16.761Z,6.23
2018-03-08T15:03:45.509Z,12.10
2018-03-08T15:06:13.845Z,5.30
2018-03-08T15:08:42.163Z,5.23
2018-03-08T15:11:10.511Z,14.77
2018-03-08T15:13:38.810Z,20.17
2018-03-08T15:16:07.147Z,9.50
2018-03-08T15:18:35.514Z,3.87
2018-03-08T15:21:03.853Z,6.90
2018-03-08T15:23:32.221Z,4.50
2018-03-08T15:26:00.636Z,7.53
2018-03-08T15:28:28.994Z,6.53
2018-03-08T15:30:57.372Z,4.10
2018-03-08T15:33:25.815Z,4.20
2018-03-08T15:35:54.116Z,3.90
2018-03-08T15:38:22.513Z,9.33
2018-03-08T15:40:50.989Z,6.43
2018-03-08T15:43:19.324Z,4.13
2018-03-08T15:45:47.680Z,4.47
2018-03-08T15:48:17.301Z,3.90
2018-03-08T15:50:46.383Z,7.60
2018-03-08T15:53:14.741Z,9.03
2018-03-08T15:55:43.112Z,8.13
2018-03-08T15:58:11.540Z,6.27
2018-03-08T16:00:40.718Z,4.30
2018-03-08T16:03:08.996Z,6.00
2018-03-08T16:05:37.358Z,9.30
2018-03-08T16:11:32.722Z,3.83
2018-03-08T16:14:01.826Z,4.10
2018-03-08T16:16:30.180Z,4.10
2018-03-08T16:18:58.488Z,4.03
2018-03-08T16:21:41.686Z,7.30
2018-03-08T16:24:10.798Z,6.97
2018-03-08T16:26:39.911Z,11.93
2018-03-08T16:29:08.635Z,3.90
2018-03-08T16:31:36.885Z,4.03
2018-03-08T16:34:05.203Z,4.10
2018-03-08T16:36:33.772Z,7.20
2018-03-08T16:39:02.086Z,4.77
2018-03-08T16:41:31.186Z,5.10
2018-03-08T16:44:00.303Z,11.87
2018-03-08T16:46:29.366Z,3.30
2018-03-08T16:48:57.718Z,4.40
2018-03-08T16:51:26.203Z,5.10
2018-03-08T16:53:54.491Z,4.47
2018-03-08T16:56:22.812Z,5.37
2018-03-08T16:58:51.910Z,5.57
2018-03-08T17:01:20.243Z,5.47
2018-03-08T17:03:48.612Z,7.10
2018-03-08T17:06:16.986Z,21.00
2018-03-08T17:08:45.320Z,6.37
2018-03-08T17:11:14.407Z,6.77
2018-03-08T17:13:42.807Z,6.83
2018-03-08T17:16:11.901Z,6.30
2018-03-08T17:18:40.264Z,6.80
2018-03-08T17:21:08.604Z,9.63
2018-03-08T17:23:36.898Z,6.63
2018-03-08T17:26:05.233Z,6.97
2018-03-08T17:28:33.638Z,7.07
2018-03-08T17:31:02.085Z,7.30
2018-03-08T17:33:30.452Z,8.97
2018-03-08T17:35:59.173Z,9.50
2018-03-08T17:38:27.517Z,13.90
2018-03-08T17:40:55.841Z,7.70
2018-03-08T17:43:24.253Z,6.57
2018-03-08T17:45:53.403Z,10.83
2018-03-08T17:48:21.786Z,9.97
2018-03-08T17:50:50.098Z,6.87
2018-03-08T17:53:18.402Z,8.80
2018-03-08T17:55:46.777Z,8.97
2018-03-08T17:58:15.154Z,8.13
2018-03-08T18:00:43.504Z,15.77
2018-03-08T18:03:11.825Z,7.20
2018-03-08T18:05:40.235Z,9.10
2018-03-08T18:08:08.572Z,9.17
2018-03-08T18:10:37.683Z,9.53
2018-03-08T18:13:06.083Z,8.70
2018-03-08T18:15:34.444Z,9.17
2018-03-08T18:18:02.850Z,8.67
2018-03-08T18:20:31.503Z,10.07
2018-03-08T18:22:59.836Z,9.07
2018-03-08T18:25:28.154Z,9.93
2018-03-08T18:27:57.289Z,11.83
2018-03-08T18:30:25.614Z,10.03
2018-03-08T18:32:54.721Z,8.73
2018-03-08T18:35:23.901Z,12.90
2018-03-08T18:37:52.260Z,35.37
2018-03-08T18:40:20.589Z,17.13
2018-03-08T18:42:49.267Z,13.37
2018-03-08T18:45:17.597Z,10.90
2018-03-08T18:47:45.965Z,9.37
2018-03-08T18:50:14.417Z,12.70
2018-03-08T18:52:42.731Z,9.83
2018-03-08T18:55:11.028Z,8.60
2018-03-08T18:57:39.394Z,11.37
2018-03-08T19:00:07.705Z,10.33
2018-03-08T19:02:36.810Z,12.43
2018-03-08T19:05:06.034Z,11.40
2018-03-08T19:07:34.363Z,15.97
2018-03-08T19:10:03.466Z,15.90
2018-03-08T19:12:32.642Z,11.03
2018-03-08T19:15:00.998Z,9.77
2018-03-08T19:17:29.319Z,11.20
2018-03-08T19:19:57.668Z,10.67
2018-03-08T19:22:26.039Z,14.70
2018-03-08T19:24:54.398Z,12.57
2018-03-08T19:27:22.909Z,14.97
2018-03-08T19:29:51.273Z,17.50
2018-03-08T19:32:19.597Z,9.50
2018-03-08T19:34:48.789Z,10.00
2018-03-08T19:37:17.182Z,7.63
2018-03-08T19:39:45.532Z,10.30
2018-03-08T19:42:13.891Z,5.80
2018-03-08T19:44:42.415Z,6.17
2018-03-08T19:47:10.752Z,4.70
2018-03-08T19:49:39.383Z,4.30
2018-03-08T19:52:08.534Z,2.60
2018-03-08T19:54:36.873Z,2.28
2018-03-08T19:57:05.398Z,2.37
2018-03-08T19:59:33.793Z,4.40
2018-03-08T20:02:02.138Z,2.08
2018-03-08T20:04:30.555Z,2.08
2018-03-08T20:06:58.911Z,1.85
2018-03-08T20:09:27.294Z,2.10
2018-03-08T20:11:55.769Z,1.83
2018-03-08T20:14:24.902Z,2.35
2018-03-08T20:16:53.247Z,2.00
2018-03-08T20:19:21.612Z,1.77
2018-03-08T20:21:49.945Z,2.58
2018-03-08T20:24:18.320Z,1.58
2018-03-08T20:26:46.689Z,1.95
2018-03-08T20:29:15.049Z,1.40
2018-03-08T20:31:43.399Z,1.75
2018-03-08T20:34:11.964Z,1.77
2018-03-08T20:36:40.354Z,2.03
2018-03-08T20:39:08.689Z,4.28
2018-03-08T20:41:37.036Z,2.67
2018-03-08T20:44:05.360Z,2.72
2018-03-08T20:46:34.462Z,2.80
2018-03-08T20:49:03.643Z,3.42
2018-03-08T20:51:32.050Z,7.45
2018-03-08T20:54:01.971Z,2.92
2018-03-08T20:56:31.188Z,2.12
2018-03-08T20:58:59.563Z,5.28
2018-03-08T21:01:27.940Z,2.25
2018-03-08T21:03:56.312Z,2.28
2018-03-08T21:06:24.671Z,3.33
2018-03-08T21:08:53.778Z,2.05
2018-03-08T21:11:22.170Z,2.33
2018-03-08T21:13:50.512Z,2.62
2018-03-08T21:16:18.893Z,3.05
2018-03-08T21:18:47.327Z,3.40
2018-03-08T21:21:15.821Z,3.10
2018-03-08T21:23:44.938Z,3.80
2018-03-08T21:26:13.603Z,3.40
2018-03-08T21:28:42.348Z,3.55
2018-03-08T21:31:11.459Z,4.20
2018-03-08T21:33:39.826Z,3.72
2018-03-08T21:36:08.135Z,4.55
2018-03-08T21:38:36.473Z,4.87
2018-03-08T21:41:06.074Z,5.47
2018-03-08T21:43:34.396Z,5.30
2018-03-08T21:46:02.750Z,7.47
2018-03-08T21:48:31.873Z,6.05
2018-03-08T21:51:00.199Z,7.90
2018-03-08T21:53:28.548Z,6.45
2018-03-08T21:55:56.901Z,11.38
2018-03-08T21:58:25.213Z,9.60
2018-03-08T22:00:53.580Z,8.35
2018-03-08T22:03:22.240Z,14.63
2018-03-08T22:05:50.557Z,9.88
2018-03-08T22:08:18.952Z,11.23
2018-03-08T22:10:47.309Z,11.77
2018-03-08T22:13:15.678Z,19.45
2018-03-08T22:15:44.002Z,11.43
2018-03-08T22:18:12.361Z,13.50
2018-03-08T22:20:40.741Z,15.52
2018-03-08T22:23:09.080Z,16.70
2018-03-08T22:25:37.595Z,14.38
2018-03-08T22:28:05.961Z,12.55
2018-03-08T22:30:34.320Z,14.70
2018-03-08T22:33:02.709Z,16.98
2018-03-08T22:35:31.084Z,16.58
2018-03-08T22:37:59.440Z,15.02
2018-03-08T22:40:27.809Z,12.40
2018-03-08T22:42:56.932Z,16.73
2018-03-08T22:45:25.997Z,14.35
2018-03-08T22:47:54.423Z,15.13
2018-03-08T22:50:22.835Z,15.32
2018-03-08T22:52:51.160Z,16.10
2018-03-08T22:55:19.871Z,23.42
2018-03-08T22:57:48.275Z,18.48
2018-03-08T23:00:18.376Z,16.35
2018-03-08T23:02:46.903Z,21.55
2018-03-08T23:05:15.299Z,20.45
2018-03-08T23:07:43.633Z,19.73
2018-03-08T23:10:12.042Z,21.83
2018-03-08T23:12:40.399Z,19.35
2018-03-08T23:15:08.735Z,18.25
2018-03-08T23:17:37.105Z,21.10
2018-03-08T23:20:05.446Z,18.73
2018-03-08T23:22:33.784Z,23.12
2018-03-08T23:25:02.173Z,23.73
2018-03-08T23:27:30.480Z,23.20
2018-03-08T23:29:58.809Z,20.00
2018-03-08T23:32:27.577Z,24.90
2018-03-08T23:34:56.678Z,18.87
2018-03-08T23:37:25.017Z,21.50
2018-03-08T23:39:54.153Z,22.87
2018-03-08T23:42:23.238Z,19.52
2018-03-08T23:44:52.339Z,23.27
2018-03-08T23:47:21.559Z,27.20
2018-03-08T23:49:49.890Z,22.55
2018-03-08T23:52:18.237Z,21.08
2018-03-08T23:54:46.936Z,24.63
2018-03-08T23:57:15.284Z,24.80
2018-03-08T23:59:43.618Z,18.30
